createdAt,value
2023-06-20T00:00:12.800Z,23.99
2023-06-20T00:02:41.340Z,23.99
2023-06-20T00:05:10.269Z,24.06
2023-06-20T00:07:41.749Z,23.93
2023-06-20T00:10:13.160Z,23.64
2023-06-20T00:12:42.716Z,23.89
2023-06-20T00:15:12.021Z,24.02
2023-06-20T00:17:41.676Z,23.61
2023-06-20T00:20:11.380Z,23.85
2023-06-20T00:22:41.664Z,23.55
2023-06-20T00:25:11.420Z,23.51
2023-06-20T00:27:40.470Z,23.67
2023-06-20T00:30:11.309Z,23.48
2023-06-20T00:32:39.992Z,23.66
2023-06-20T00:35:09.272Z,23.59
2023-06-20T00:37:39.366Z,23.52
2023-06-20T00:40:11.799Z,23.54
2023-06-20T00:42:40.862Z,23.25
2023-06-20T00:45:34.807Z,23.44
2023-06-20T00:48:07.958Z,23.51
2023-06-20T00:50:37.504Z,23.37
2023-06-20T00:53:08.685Z,23.46
2023-06-20T00:55:40.041Z,23.29
2023-06-20T00:58:09.465Z,23.52
2023-06-20T01:00:40.095Z,23.38
2023-06-20T01:03:13.744Z,23.48
2023-06-20T01:05:45.397Z,23.56
2023-06-20T01:08:25.968Z,23.02
2023-06-20T01:11:07.159Z,23.40
2023-06-20T01:13:48.933Z,23.20
2023-06-20T01:16:27.175Z,23.23
2023-06-20T01:19:22.333Z,23.27
2023-06-20T01:21:57.591Z,23.37
2023-06-20T01:24:38.051Z,23.25
2023-06-20T01:27:16.743Z,22.99
2023-06-20T01:29:55.397Z,23.13
2023-06-20T01:32:26.614Z,23.33
2023-06-20T01:35:07.895Z,23.47
2023-06-20T01:37:41.403Z,23.17
2023-06-20T01:40:16.102Z,23.27
2023-06-20T01:42:45.948Z,23.23
2023-06-20T01:45:17.668Z,23.32
2023-06-20T01:47:49.577Z,23.26
2023-06-20T01:50:20.315Z,23.26
2023-06-20T01:52:51.746Z,23.29
2023-06-20T01:55:24.649Z,23.39
2023-06-20T01:57:55.632Z,23.42
2023-06-20T02:00:26.125Z,23.21
2023-06-20T02:02:56.258Z,22.88
2023-06-20T02:05:26.139Z,23.40
2023-06-20T02:07:58.210Z,23.35
2023-06-20T02:10:29.994Z,23.43
2023-06-20T02:13:00.010Z,23.37
2023-06-20T02:15:30.745Z,23.31
2023-06-20T02:18:00.741Z,23.46
2023-06-20T02:20:30.170Z,23.39
2023-06-20T02:22:59.395Z,23.10
2023-06-20T02:25:36.866Z,23.04
2023-06-20T02:28:07.219Z,23.03
2023-06-20T02:30:39.637Z,23.25
2023-06-20T02:33:10.689Z,23.15
2023-06-20T02:35:41.829Z,22.80
2023-06-20T02:38:12.131Z,23.30
2023-06-20T02:40:42.594Z,23.16
2023-06-20T02:43:11.411Z,23.20
2023-06-20T02:45:40.117Z,23.15
2023-06-20T02:48:31.615Z,22.88
2023-06-20T02:51:12.136Z,23.06
2023-06-20T02:53:52.284Z,23.27
2023-06-20T02:56:23.779Z,22.85
2023-06-20T02:58:55.606Z,23.01
2023-06-20T03:01:28.293Z,23.40
2023-06-20T03:04:00.651Z,23.33
2023-06-20T03:06:31.083Z,23.18
2023-06-20T03:09:03.892Z,23.46
2023-06-20T03:11:34.707Z,23.20
2023-06-20T03:14:05.306Z,23.22
2023-06-20T03:16:34.246Z,23.24
2023-06-20T03:19:04.227Z,23.32
2023-06-20T03:21:32.758Z,23.39
2023-06-20T03:24:01.643Z,22.87
2023-06-20T03:26:30.472Z,23.20
2023-06-20T03:29:00.682Z,23.27
2023-06-20T03:31:29.167Z,22.76
2023-06-20T03:33:57.694Z,23.38
2023-06-20T03:36:26.156Z,23.40
2023-06-20T03:38:54.795Z,23.10
2023-06-20T03:41:23.671Z,22.81
2023-06-20T03:43:52.301Z,23.19
2023-06-20T03:46:22.470Z,23.03
2023-06-20T03:48:51.085Z,23.08
2023-06-20T03:51:21.710Z,23.14
2023-06-20T03:53:53.571Z,23.02
2023-06-20T03:56:22.457Z,23.22
2023-06-20T03:58:52.090Z,23.10
2023-06-20T04:01:25.842Z,23.37
2023-06-20T04:03:57.152Z,22.99
2023-06-20T04:06:31.362Z,23.16
2023-06-20T04:09:00.019Z,23.27
2023-06-20T04:11:28.458Z,23.34
2023-06-20T04:13:57.271Z,23.12
2023-06-20T04:16:27.256Z,23.40
2023-06-20T04:19:02.942Z,23.09
2023-06-20T04:21:34.516Z,23.48
2023-06-20T04:24:03.933Z,23.43
2023-06-20T04:26:33.926Z,23.34
2023-06-20T04:29:09.235Z,23.54
2023-06-20T04:31:54.208Z,23.49
2023-06-20T04:34:27.192Z,23.63
2023-06-20T04:36:58.361Z,23.70
2023-06-20T04:39:28.480Z,23.69
2023-06-20T04:42:01.130Z,23.25
2023-06-20T04:44:30.762Z,23.64
2023-06-20T04:47:05.311Z,23.17
2023-06-20T04:49:39.781Z,23.78
2023-06-20T04:52:13.181Z,23.93
2023-06-20T04:54:47.612Z,23.75
2023-06-20T04:57:28.685Z,23.68
2023-06-20T05:00:04.455Z,23.85
2023-06-20T05:02:37.732Z,24.00
2023-06-20T05:05:10.811Z,23.80
2023-06-20T05:07:43.521Z,23.98
2023-06-20T05:10:19.056Z,23.74
2023-06-20T05:12:50.370Z,23.36
2023-06-20T05:15:25.666Z,23.59
2023-06-20T05:18:16.155Z,23.94
2023-06-20T05:20:57.682Z,23.92
2023-06-20T05:23:36.282Z,23.81
2023-06-20T05:26:08.833Z,23.78
2023-06-20T05:28:43.676Z,23.90
2023-06-20T05:31:30.599Z,24.01
2023-06-20T05:34:07.738Z,24.46
2023-06-20T05:36:38.701Z,24.10
2023-06-20T05:39:13.915Z,24.20
2023-06-20T05:41:45.803Z,24.04
2023-06-20T05:44:16.021Z,24.24
2023-06-20T05:46:45.310Z,24.30
2023-06-20T05:49:17.363Z,24.10
2023-06-20T05:51:47.201Z,24.72
2023-06-20T05:54:16.520Z,24.34
2023-06-20T05:56:45.577Z,24.61
2023-06-20T05:59:15.605Z,24.63
2023-06-20T06:01:45.103Z,25.11
2023-06-20T06:04:15.847Z,24.68
2023-06-20T06:06:46.205Z,24.51
2023-06-20T06:09:16.257Z,24.72
2023-06-20T06:11:47.056Z,24.83
2023-06-20T06:14:16.353Z,24.81
2023-06-20T06:16:46.144Z,24.66
2023-06-20T06:19:16.384Z,25.00
2023-06-20T06:21:45.596Z,25.24
2023-06-20T06:24:14.321Z,24.92
2023-06-20T06:26:43.140Z,24.75
2023-06-20T06:29:13.805Z,25.04
2023-06-20T06:31:42.860Z,24.54
2023-06-20T06:34:11.653Z,25.22
2023-06-20T06:36:42.130Z,25.38
2023-06-20T06:39:12.998Z,25.63
2023-06-20T06:41:41.943Z,25.76
2023-06-20T06:44:10.672Z,25.84
2023-06-20T06:46:39.263Z,26.44
2023-06-20T06:49:07.812Z,26.15
2023-06-20T06:51:38.884Z,26.41
2023-06-20T06:54:10.309Z,26.73
2023-06-20T06:56:41.211Z,27.03
2023-06-20T07:02:15.332Z,26.80
2023-06-20T07:04:44.256Z,27.24
2023-06-20T07:07:12.858Z,27.31
2023-06-20T07:09:43.835Z,27.37
2023-06-20T07:12:16.394Z,27.11
2023-06-20T07:14:46.148Z,27.32
2023-06-20T07:17:15.945Z,27.09
2023-06-20T07:19:47.098Z,27.39
2023-06-20T07:22:16.926Z,27.54
2023-06-20T07:24:48.699Z,27.40
2023-06-20T07:27:22.480Z,26.94
2023-06-20T07:29:54.136Z,27.84
2023-06-20T07:32:22.970Z,27.70
2023-06-20T07:34:51.338Z,27.95
2023-06-20T07:37:19.777Z,28.19
2023-06-20T07:39:49.770Z,28.03
2023-06-20T07:42:18.360Z,27.82
2023-06-20T07:44:46.890Z,27.69
2023-06-20T07:47:15.531Z,27.63
2023-06-20T07:49:44.007Z,28.32
2023-06-20T07:52:13.065Z,27.91
2023-06-20T07:54:41.522Z,28.38
2023-06-20T07:57:11.647Z,28.48
2023-06-20T07:59:40.211Z,28.51
2023-06-20T08:02:08.912Z,28.17
2023-06-20T08:04:38.319Z,28.52
2023-06-20T08:07:07.765Z,28.48
2023-06-20T08:09:36.699Z,28.57
2023-06-20T08:12:07.446Z,28.49
2023-06-20T08:14:38.538Z,28.80
2023-06-20T08:17:09.033Z,28.64
2023-06-20T08:19:38.799Z,28.98
2023-06-20T08:22:08.573Z,28.65
2023-06-20T08:24:38.108Z,28.38
2023-06-20T08:27:10.935Z,29.06
2023-06-20T08:29:41.311Z,29.37
2023-06-20T08:32:12.488Z,29.50
2023-06-20T08:34:41.726Z,29.59
2023-06-20T08:37:10.539Z,29.51
2023-06-20T08:39:39.337Z,29.66
2023-06-20T08:42:08.986Z,29.96
2023-06-20T08:44:55.274Z,30.15
2023-06-20T08:47:27.892Z,29.50
2023-06-20T08:49:57.071Z,30.07
2023-06-20T08:52:31.294Z,30.16
2023-06-20T08:55:02.253Z,30.58
2023-06-20T08:57:32.256Z,30.95
2023-06-20T09:00:01.752Z,30.54
2023-06-20T09:02:32.027Z,30.70
2023-06-20T09:05:05.199Z,30.69
2023-06-20T09:07:39.357Z,30.57
2023-06-20T09:10:10.056Z,30.66
2023-06-20T09:12:49.748Z,30.78
2023-06-20T09:15:21.363Z,30.09
2023-06-20T09:17:55.026Z,30.84
2023-06-20T09:20:28.517Z,31.31
2023-06-20T09:22:58.582Z,30.78
2023-06-20T09:25:29.262Z,30.61
2023-06-20T09:27:59.777Z,30.37
2023-06-20T09:30:33.761Z,30.52
2023-06-20T09:33:08.847Z,31.11
2023-06-20T09:35:37.688Z,31.07
2023-06-20T09:38:07.088Z,31.25
2023-06-20T09:40:45.680Z,30.63
2023-06-20T09:43:14.295Z,31.21
2023-06-20T09:45:42.886Z,31.44
2023-06-20T09:48:15.251Z,31.74
2023-06-20T09:50:45.927Z,31.84
2023-06-20T09:53:28.311Z,31.94
2023-06-20T09:55:59.541Z,31.59
2023-06-20T09:58:29.771Z,32.33
2023-06-20T10:01:00.419Z,31.96
2023-06-20T10:03:31.235Z,32.04
2023-06-20T10:06:01.823Z,32.38
2023-06-20T10:08:31.361Z,32.78
2023-06-20T10:11:00.639Z,32.31
2023-06-20T10:13:29.552Z,33.11
2023-06-20T10:16:00.491Z,31.89
2023-06-20T10:18:42.953Z,32.02
2023-06-20T10:21:16.428Z,32.73
2023-06-20T10:23:47.011Z,33.20
2023-06-20T10:26:15.576Z,33.43
2023-06-20T10:28:44.151Z,32.98
2023-06-20T10:31:13.689Z,32.55
2023-06-20T10:33:48.050Z,32.77
2023-06-20T10:36:20.696Z,32.37
2023-06-20T10:39:10.290Z,32.67
2023-06-20T10:41:38.759Z,33.34
2023-06-20T10:44:11.977Z,33.18
2023-06-20T10:46:48.407Z,33.83
2023-06-20T10:49:19.770Z,33.04
2023-06-20T10:51:49.816Z,33.76
2023-06-20T10:54:20.175Z,33.99
2023-06-20T10:56:48.916Z,33.88
2023-06-20T10:59:21.164Z,33.89
2023-06-20T11:01:49.969Z,33.67
2023-06-20T11:04:21.296Z,33.57
2023-06-20T11:06:49.778Z,34.01
2023-06-20T11:09:18.978Z,33.61
2023-06-20T11:11:49.382Z,33.62
2023-06-20T11:14:21.487Z,34.51
2023-06-20T11:16:52.147Z,34.05
2023-06-20T11:21:56.358Z,34.05
2023-06-20T11:24:26.330Z,34.36
2023-06-20T11:26:55.030Z,34.15
2023-06-20T11:29:24.362Z,34.51
2023-06-20T11:32:11.341Z,34.05
2023-06-20T11:35:00.664Z,34.32
2023-06-20T11:37:29.549Z,34.88
2023-06-20T11:39:58.131Z,34.49
2023-06-20T11:42:39.736Z,34.10
2023-06-20T11:45:12.562Z,34.48
2023-06-20T11:47:42.027Z,34.09
2023-06-20T11:50:32.683Z,33.60
2023-06-20T11:53:06.522Z,33.31
2023-06-20T11:56:01.998Z,34.86
2023-06-20T11:58:49.768Z,34.83
2023-06-20T12:01:22.346Z,34.80
2023-06-20T12:04:07.673Z,34.43
2023-06-20T12:06:42.219Z,34.24
2023-06-20T12:09:13.490Z,34.98
2023-06-20T12:11:53.565Z,34.85
2023-06-20T12:14:24.468Z,35.48
2023-06-20T12:16:56.139Z,35.25
2023-06-20T12:19:27.386Z,35.56
2023-06-20T12:22:05.251Z,34.62
2023-06-20T12:24:35.558Z,35.64
2023-06-20T12:27:05.499Z,35.75
2023-06-20T12:29:34.490Z,36.38
2023-06-20T12:32:03.920Z,36.36
2023-06-20T12:34:35.910Z,36.97
2023-06-20T12:37:06.894Z,36.67
2023-06-20T12:39:36.603Z,36.88
2023-06-20T12:42:08.544Z,37.18
2023-06-20T12:44:38.837Z,38.30
2023-06-20T12:47:13.319Z,37.93
2023-06-20T12:49:42.199Z,36.58
2023-06-20T12:52:13.372Z,37.44
2023-06-20T12:54:43.368Z,36.66
2023-06-20T12:57:11.756Z,36.39
2023-06-20T12:59:40.323Z,35.94
2023-06-20T13:02:10.525Z,36.63
2023-06-20T13:04:43.363Z,36.74
2023-06-20T13:07:16.455Z,36.34
2023-06-20T13:09:48.439Z,37.06
2023-06-20T13:12:18.249Z,36.60
2023-06-20T13:15:07.927Z,36.23
2023-06-20T13:17:38.568Z,36.60
2023-06-20T13:20:10.895Z,36.69
2023-06-20T13:22:43.581Z,36.14
2023-06-20T13:25:24.280Z,36.29
2023-06-20T13:27:54.704Z,36.23
2023-06-20T13:30:38.207Z,36.86
2023-06-20T13:33:12.947Z,37.28
2023-06-20T13:41:13.662Z,37.28
2023-06-20T13:43:42.699Z,37.07
2023-06-20T13:46:15.313Z,37.75
2023-06-20T13:48:46.113Z,37.14
2023-06-20T13:51:19.345Z,38.17
2023-06-20T13:53:57.409Z,38.47
2023-06-20T13:56:35.539Z,38.29
2023-06-20T13:59:06.179Z,37.33
2023-06-20T14:01:42.895Z,36.66
2023-06-20T14:04:12.666Z,37.14
2023-06-20T14:06:46.756Z,36.02
2023-06-20T14:09:25.156Z,36.59
2023-06-20T14:11:57.532Z,37.01
2023-06-20T14:14:31.577Z,37.00
2023-06-20T14:17:08.614Z,37.02
2023-06-20T14:19:40.996Z,36.44
2023-06-20T14:22:12.171Z,36.76
2023-06-20T14:24:50.589Z,36.73
2023-06-20T14:27:24.670Z,35.86
2023-06-20T14:38:51.406Z,34.24
2023-06-20T14:41:31.003Z,35.01
2023-06-20T14:44:02.782Z,34.49
2023-06-20T14:46:35.994Z,34.60
2023-06-20T14:49:07.485Z,34.02
2023-06-20T14:51:39.567Z,34.08
2023-06-20T14:54:12.248Z,34.63
2023-06-20T14:56:45.012Z,33.97
2023-06-20T15:05:17.842Z,33.76
2023-06-20T15:07:54.832Z,34.02
2023-06-20T15:10:58.840Z,34.11
2023-06-20T15:13:41.426Z,34.29
2023-06-20T15:19:35.551Z,33.52
2023-06-20T15:22:07.231Z,32.88
2023-06-20T15:24:37.751Z,32.69
2023-06-20T15:27:14.312Z,33.13
2023-06-20T15:29:46.551Z,32.13
2023-06-20T15:52:35.847Z,25.78
2023-06-20T15:55:12.409Z,25.58
2023-06-20T15:57:42.828Z,25.26
2023-06-20T16:00:18.518Z,25.31
2023-06-20T16:02:55.311Z,25.10
2023-06-20T16:05:28.988Z,24.89
2023-06-20T16:07:58.474Z,24.43
2023-06-20T16:10:30.056Z,24.88
2023-06-20T16:13:00.873Z,24.37
2023-06-20T16:15:33.742Z,24.30
2023-06-20T16:18:19.121Z,24.30
2023-06-20T16:20:49.954Z,23.90
2023-06-20T16:23:20.378Z,24.03
2023-06-20T16:25:51.836Z,23.73
2023-06-20T16:28:29.860Z,23.81
2023-06-20T16:30:59.493Z,23.39
2023-06-20T16:36:09.928Z,23.87
2023-06-20T16:38:40.375Z,24.01
2023-06-20T16:41:12.430Z,24.17
2023-06-20T16:43:44.077Z,23.94
2023-06-20T16:46:13.627Z,24.05
2023-06-20T16:48:45.239Z,24.26
2023-06-20T16:51:16.812Z,24.30
2023-06-20T16:53:46.300Z,24.17
2023-06-20T16:56:23.987Z,24.15
2023-06-20T16:58:56.721Z,24.03
2023-06-20T17:01:31.033Z,24.33
2023-06-20T17:04:07.105Z,24.09
2023-06-20T17:06:38.079Z,24.69
2023-06-20T17:09:10.438Z,24.83
2023-06-20T17:11:41.410Z,25.08
2023-06-20T17:14:11.726Z,24.79
2023-06-20T17:16:48.911Z,25.07
2023-06-20T17:19:22.096Z,25.14
2023-06-20T17:22:06.094Z,24.90
2023-06-20T17:24:44.776Z,25.12
2023-06-20T17:27:16.835Z,25.23
2023-06-20T17:29:46.129Z,25.07
2023-06-20T17:32:20.349Z,24.91
2023-06-20T17:34:53.722Z,24.74
2023-06-20T17:37:36.852Z,24.45
2023-06-20T17:40:10.443Z,24.90
2023-06-20T17:42:43.171Z,24.90
2023-06-20T17:45:12.547Z,24.64
2023-06-20T17:47:43.415Z,24.61
2023-06-20T17:50:16.220Z,24.30
2023-06-20T17:52:46.685Z,24.57
2023-06-20T17:55:16.157Z,24.28
2023-06-20T17:57:59.486Z,24.01
2023-06-20T18:00:32.613Z,24.36
2023-06-20T18:03:04.192Z,24.46
2023-06-20T18:05:34.370Z,24.18
2023-06-20T18:08:05.540Z,24.53
2023-06-20T18:10:36.569Z,24.82
2023-06-20T18:16:11.485Z,24.85
2023-06-20T18:18:46.001Z,24.84
2023-06-20T18:21:17.995Z,24.71
2023-06-20T18:23:59.708Z,24.73
2023-06-20T18:26:29.995Z,24.79
2023-06-20T18:29:01.453Z,24.72
2023-06-20T18:31:33.560Z,24.80
2023-06-20T18:34:04.185Z,24.78
2023-06-20T18:36:34.881Z,24.74
2023-06-20T18:39:07.962Z,24.70
2023-06-20T18:41:42.097Z,24.98
2023-06-20T18:44:21.624Z,24.89
2023-06-20T18:47:06.898Z,25.02
2023-06-20T18:52:25.217Z,24.96
2023-06-20T18:57:55.598Z,24.94
2023-06-20T19:00:34.131Z,24.79
2023-06-20T19:03:28.427Z,25.04
2023-06-20T19:15:38.014Z,24.77
2023-06-20T19:21:16.335Z,24.88
2023-06-20T19:29:55.832Z,24.71
2023-06-20T19:32:41.830Z,24.52
2023-06-20T19:36:04.944Z,24.80
2023-06-20T19:53:05.805Z,24.25
2023-06-20T19:55:34.146Z,24.40
2023-06-20T19:58:04.042Z,24.38
2023-06-20T20:00:32.665Z,24.39
2023-06-20T20:03:01.071Z,24.07
2023-06-20T20:05:29.390Z,24.22
2023-06-20T20:07:57.764Z,23.92
2023-06-20T20:10:27.696Z,24.02
2023-06-20T20:12:56.145Z,23.71
2023-06-20T20:15:24.420Z,23.89
2023-06-20T20:17:52.743Z,23.97
2023-06-20T20:20:21.146Z,23.90
2023-06-20T20:22:49.860Z,23.98
2023-06-20T20:25:19.473Z,23.81
2023-06-20T20:27:50.623Z,23.77
2023-06-20T20:30:18.945Z,23.78
2023-06-20T20:32:47.677Z,23.66
2023-06-20T20:35:17.616Z,24.01
2023-06-20T20:37:46.334Z,23.64
2023-06-20T20:40:15.616Z,23.58
2023-06-20T20:42:44.475Z,23.36
2023-06-20T20:45:20.052Z,23.69
2023-06-20T20:47:50.837Z,23.47
2023-06-20T20:50:19.543Z,23.50
2023-06-20T20:52:48.144Z,23.47
2023-06-20T20:55:16.745Z,23.90
2023-06-20T20:57:45.297Z,23.64
2023-06-20T21:00:17.573Z,23.58
2023-06-20T21:02:46.230Z,23.67
2023-06-20T21:05:14.963Z,24.01
2023-06-20T21:07:43.573Z,23.68
2023-06-20T21:10:17.362Z,23.53
2023-06-20T21:12:49.104Z,23.52
2023-06-20T21:15:22.938Z,23.47
2023-06-20T21:17:51.773Z,23.83
2023-06-20T21:20:21.014Z,23.44
2023-06-20T21:22:49.757Z,23.54
2023-06-20T21:25:19.007Z,23.62
2023-06-20T21:27:47.815Z,23.33
2023-06-20T21:30:19.034Z,23.49
2023-06-20T21:32:47.813Z,23.49
2023-06-20T21:35:16.927Z,22.98
2023-06-20T21:37:45.608Z,23.05
2023-06-20T21:40:15.048Z,23.47
2023-06-20T21:42:43.617Z,23.11
2023-06-20T21:45:13.406Z,23.57
2023-06-20T21:47:43.860Z,23.35
2023-06-20T21:50:13.730Z,23.22
2023-06-20T21:52:44.898Z,22.97
2023-06-20T21:55:14.706Z,23.23
2023-06-20T21:57:43.479Z,23.30
2023-06-20T22:00:14.047Z,22.98
2023-06-20T22:02:44.473Z,23.08
2023-06-20T22:05:13.625Z,23.32
2023-06-20T22:07:44.086Z,23.41
2023-06-20T22:10:14.164Z,23.31
2023-06-20T22:12:45.734Z,23.59
2023-06-20T22:15:15.146Z,23.13
2023-06-20T22:17:45.196Z,23.33
2023-06-20T22:20:14.379Z,23.03
2023-06-20T22:22:42.961Z,23.20
2023-06-20T22:25:11.649Z,23.33
2023-06-20T22:27:40.115Z,23.14
2023-06-20T22:30:12.173Z,23.02
2023-06-20T22:32:41.001Z,22.99
2023-06-20T22:35:13.749Z,23.12
2023-06-20T22:37:42.258Z,22.83
2023-06-20T22:40:12.351Z,22.86
2023-06-20T22:42:41.138Z,22.92
2023-06-20T22:45:10.327Z,22.79
2023-06-20T22:47:38.867Z,22.77
2023-06-20T22:50:08.855Z,22.85
2023-06-20T22:52:38.846Z,22.83
2023-06-20T22:55:08.953Z,22.83
2023-06-20T22:57:37.934Z,22.78
2023-06-20T23:00:09.453Z,22.72
2023-06-20T23:02:38.610Z,22.65
2023-06-20T23:05:09.117Z,23.25
2023-06-20T23:07:40.194Z,22.75
2023-06-20T23:10:10.287Z,23.01
2023-06-20T23:12:39.022Z,22.70
2023-06-20T23:15:09.292Z,23.09
2023-06-20T23:17:37.797Z,23.18
2023-06-20T23:20:10.361Z,23.30
2023-06-20T23:22:41.949Z,23.00
2023-06-20T23:25:13.894Z,22.80
2023-06-20T23:27:42.592Z,23.01
2023-06-20T23:30:13.276Z,22.96
2023-06-20T23:32:42.874Z,22.87
2023-06-20T23:35:11.716Z,22.99
2023-06-20T23:37:41.718Z,23.19
2023-06-20T23:40:13.410Z,22.80
2023-06-20T23:42:42.834Z,22.81
2023-06-20T23:45:12.183Z,22.82
2023-06-20T23:47:40.721Z,22.65
2023-06-20T23:50:10.616Z,23.11
2023-06-20T23:52:40.704Z,22.97
2023-06-20T23:55:10.512Z,22.56
2023-06-20T23:57:39.474Z,22.92
